sensor_id;sensor_type;location;lat;lon;timestamp;pressure;altitude;pressure_sealevel;temperature;humidity
66560;BME280;53413;49.878;8.142;2022-08-19T00:00:06;99574.66;;;22.30;61.67
66560;BME280;53413;49.878;8.142;2022-08-19T00:02:33;99583.66;;;22.29;61.60
66560;BME280;53413;49.878;8.142;2022-08-19T00:04:59;99584.50;;;22.30;61.77
66560;BME280;53413;49.878;8.142;2022-08-19T00:07:24;99591.66;;;22.29;61.62
66560;BME280;53413;49.878;8.142;2022-08-19T00:09:50;99585.63;;;22.27;61.88
66560;BME280;53413;49.878;8.142;2022-08-19T00:12:15;99590.13;;;22.27;61.81
66560;BME280;53413;49.878;8.142;2022-08-19T00:14:41;99595.47;;;22.27;61.99
66560;BME280;53413;49.878;8.142;2022-08-19T00:17:07;99589.16;;;22.28;61.96
66560;BME280;53413;49.878;8.142;2022-08-19T00:19:34;99586.47;;;22.28;62.15
66560;BME280;53413;49.878;8.142;2022-08-19T00:21:59;99590.13;;;22.27;62.39
66560;BME280;53413;49.878;8.142;2022-08-19T00:24:25;99580.44;;;22.26;62.18
66560;BME280;53413;49.878;8.142;2022-08-19T00:26:51;99585.63;;;22.27;62.14
66560;BME280;53413;49.878;8.142;2022-08-19T00:29:19;99589.28;;;22.26;62.26
66560;BME280;53413;49.878;8.142;2022-08-19T00:31:46;99582.13;;;22.27;62.33
66560;BME280;53413;49.878;8.142;2022-08-19T00:34:13;99581.97;;;22.28;62.47
66560;BME280;53413;49.878;8.142;2022-08-19T00:36:42;99575.81;;;22.28;62.42
66560;BME280;53413;49.878;8.142;2022-08-19T00:39:08;99578.47;;;22.28;62.19
66560;BME280;53413;49.878;8.142;2022-08-19T00:41:34;99576.63;;;22.28;62.44
66560;BME280;53413;49.878;8.142;2022-08-19T00:44:12;99582.25;;;22.25;62.80
66560;BME280;53413;49.878;8.142;2022-08-19T00:46:44;99585.94;;;22.24;62.67
66560;BME280;53413;49.878;8.142;2022-08-19T00:49:16;99578.03;;;22.23;62.76
66560;BME280;53413;49.878;8.142;2022-08-19T00:51:46;99575.38;;;22.23;63.02
66560;BME280;53413;49.878;8.142;2022-08-19T00:54:13;99570.91;;;22.23;62.67
66560;BME280;53413;49.878;8.142;2022-08-19T00:56:39;99562.03;;;22.23;63.05
66560;BME280;53413;49.878;8.142;2022-08-19T00:59:06;99552.34;;;22.22;62.79
66560;BME280;53413;49.878;8.142;2022-08-19T01:01:39;99550.00;;;22.19;62.55
66560;BME280;53413;49.878;8.142;2022-08-19T01:04:06;99544.78;;;22.17;62.61
66560;BME280;53413;49.878;8.142;2022-08-19T01:06:32;99544.94;;;22.16;62.73
66560;BME280;53413;49.878;8.142;2022-08-19T01:08:58;99537.22;;;22.12;62.84
66560;BME280;53413;49.878;8.142;2022-08-19T01:11:24;99535.53;;;22.11;63.08
66560;BME280;53413;49.878;8.142;2022-08-19T01:13:52;99539.34;;;22.09;62.86
66560;BME280;53413;49.878;8.142;2022-08-19T01:16:20;99544.53;;;22.10;62.88
66560;BME280;53413;49.878;8.142;2022-08-19T01:18:46;99543.53;;;22.11;62.83
66560;BME280;53413;49.878;8.142;2022-08-19T01:21:20;99532.16;;;22.09;62.91
66560;BME280;53413;49.878;8.142;2022-08-19T01:23:47;99528.66;;;22.09;63.03
66560;BME280;53413;49.878;8.142;2022-08-19T01:26:17;99529.50;;;22.09;62.91
66560;BME280;53413;49.878;8.142;2022-08-19T01:28:44;99538.47;;;22.08;62.75
66560;BME280;53413;49.878;8.142;2022-08-19T01:31:16;99531.47;;;22.07;62.99
66560;BME280;53413;49.878;8.142;2022-08-19T01:33:42;99532.59;;;22.05;62.88
66560;BME280;53413;49.878;8.142;2022-08-19T01:36:16;99525.72;;;22.02;62.93
66560;BME280;53413;49.878;8.142;2022-08-19T01:38:47;99530.38;;;22.00;62.92
66560;BME280;53413;49.878;8.142;2022-08-19T01:41:15;99522.66;;;21.97;63.05
66560;BME280;53413;49.878;8.142;2022-08-19T01:43:42;99550.31;;;21.96;63.02
66560;BME280;53413;49.878;8.142;2022-08-19T01:46:07;99557.47;;;21.95;63.18
66560;BME280;53413;49.878;8.142;2022-08-19T01:48:38;99564.34;;;21.98;62.84
66560;BME280;53413;49.878;8.142;2022-08-19T01:51:05;99555.34;;;21.99;62.88
66560;BME280;53413;49.878;8.142;2022-08-19T01:53:31;99545.53;;;21.99;62.90
66560;BME280;53413;49.878;8.142;2022-08-19T01:55:57;99530.38;;;22.00;63.06
66560;BME280;53413;49.878;8.142;2022-08-19T01:58:27;99531.06;;;22.02;62.81
66560;BME280;53413;49.878;8.142;2022-08-19T02:00:56;99534.88;;;21.99;62.81
66560;BME280;53413;49.878;8.142;2022-08-19T02:03:22;99537.09;;;22.04;62.68
66560;BME280;53413;49.878;8.142;2022-08-19T02:05:53;99553.41;;;22.01;62.71
66560;BME280;53413;49.878;8.142;2022-08-19T02:08:18;99548.47;;;22.06;62.53
66560;BME280;53413;49.878;8.142;2022-08-19T02:10:44;99540.75;;;22.03;62.68
66560;BME280;53413;49.878;8.142;2022-08-19T02:13:11;99543.56;;;22.02;62.71
66560;BME280;53413;49.878;8.142;2022-08-19T02:15:37;99545.53;;;21.99;62.81
66560;BME280;53413;49.878;8.142;2022-08-19T02:18:03;99549.03;;;22.00;62.88
66560;BME280;53413;49.878;8.142;2022-08-19T02:20:28;99553.53;;;21.99;62.92
66560;BME280;53413;49.878;8.142;2022-08-19T02:22:53;99550.03;;;21.99;62.83
66560;BME280;53413;49.878;8.142;2022-08-19T02:25:19;99549.31;;;21.97;62.84
66560;BME280;53413;49.878;8.142;2022-08-19T02:27:47;99547.50;;;21.97;63.02
66560;BME280;53413;49.878;8.142;2022-08-19T02:30:15;99553.66;;;21.98;62.90
66560;BME280;53413;49.878;8.142;2022-08-19T02:32:41;99545.81;;;21.96;63.10
66560;BME280;53413;49.878;8.142;2022-08-19T02:35:08;99553.66;;;21.98;62.70
66560;BME280;53413;49.878;8.142;2022-08-19T02:37:34;99566.88;;;21.99;62.82
66560;BME280;53413;49.878;8.142;2022-08-19T02:40:18;99563.78;;;22.04;62.77
66560;BME280;53413;49.878;8.142;2022-08-19T02:42:44;99563.78;;;22.04;62.50
66560;BME280;53413;49.878;8.142;2022-08-19T02:45:11;99555.63;;;22.06;62.42
66560;BME280;53413;49.878;8.142;2022-08-19T02:47:37;99563.63;;;22.06;62.26
66560;BME280;53413;49.878;8.142;2022-08-19T02:50:04;99559.00;;;22.08;62.38
66560;BME280;53413;49.878;8.142;2022-08-19T02:52:32;99564.88;;;22.11;62.13
66560;BME280;53413;49.878;8.142;2022-08-19T02:54:57;99566.84;;;22.09;62.10
66560;BME280;53413;49.878;8.142;2022-08-19T02:57:23;99566.84;;;22.09;62.06
66560;BME280;53413;49.878;8.142;2022-08-19T02:59:49;99566.84;;;22.09;61.99
66560;BME280;53413;49.878;8.142;2022-08-19T03:02:17;99571.34;;;22.09;62.15
66560;BME280;53413;49.878;8.142;2022-08-19T03:04:43;99564.19;;;22.09;62.17
66560;BME280;53413;49.878;8.142;2022-08-19T03:07:09;99556.34;;;22.08;62.19
66560;BME280;53413;49.878;8.142;2022-08-19T03:09:39;99560.97;;;22.06;62.00
66560;BME280;53413;49.878;8.142;2022-08-19T03:12:05;99562.94;;;22.04;62.18
66560;BME280;53413;49.878;8.142;2022-08-19T03:14:32;99558.03;;;21.99;62.13
66560;BME280;53413;49.878;8.142;2022-08-19T03:16:57;99552.84;;;21.97;62.31
66560;BME280;53413;49.878;8.142;2022-08-19T03:19:23;99562.00;;;21.95;62.21
66560;BME280;53413;49.878;8.142;2022-08-19T03:21:50;99555.09;;;21.92;62.47
66560;BME280;53413;49.878;8.142;2022-08-19T03:24:16;99563.25;;;21.91;62.54
66560;BME280;53413;49.878;8.142;2022-08-19T03:26:45;99568.31;;;21.84;62.69
66560;BME280;53413;49.878;8.142;2022-08-19T03:29:12;99570.84;;;21.76;62.98
66560;BME280;53413;49.878;8.142;2022-08-19T03:31:39;99575.91;;;21.69;62.95
66560;BME280;53413;49.878;8.142;2022-08-19T03:34:06;99571.41;;;21.60;63.40
66560;BME280;53413;49.878;8.142;2022-08-19T03:36:32;99571.25;;;21.51;63.69
66560;BME280;53413;49.878;8.142;2022-08-19T03:39:00;99569.84;;;21.37;64.16
66560;BME280;53413;49.878;8.142;2022-08-19T03:41:35;99567.44;;;21.25;64.56
66560;BME280;53413;49.878;8.142;2022-08-19T03:44:02;99570.38;;;21.12;64.93
66560;BME280;53413;49.878;8.142;2022-08-19T03:46:32;99569.38;;;21.03;65.44
66560;BME280;53413;49.878;8.142;2022-08-19T03:48:59;99569.47;;;20.91;65.87
66560;BME280;53413;49.878;8.142;2022-08-19T03:51:29;99572.97;;;20.82;65.95
66560;BME280;53413;49.878;8.142;2022-08-19T03:54:00;99579.19;;;20.71;66.83
66560;BME280;53413;49.878;8.142;2022-08-19T03:56:26;99591.22;;;20.66;66.79
66560;BME280;53413;49.878;8.142;2022-08-19T03:58:54;99588.25;;;20.59;67.19
66560;BME280;53413;49.878;8.142;2022-08-19T04:01:22;99586.25;;;20.51;67.52
66560;BME280;53413;49.878;8.142;2022-08-19T04:03:49;99587.78;;;20.44;67.87
66560;BME280;53413;49.878;8.142;2022-08-19T04:06:16;99597.13;;;20.38;68.13
66560;BME280;53413;49.878;8.142;2022-08-19T04:08:44;99595.84;;;20.33;68.48
66560;BME280;53413;49.878;8.142;2022-08-19T04:11:13;99605.19;;;20.27;68.62
66560;BME280;53413;49.878;8.142;2022-08-19T04:13:40;99596.66;;;20.23;68.70
66560;BME280;53413;49.878;8.142;2022-08-19T04:16:06;99602.22;;;20.20;68.85
66560;BME280;53413;49.878;8.142;2022-08-19T04:18:33;99598.97;;;20.17;69.10
66560;BME280;53413;49.878;8.142;2022-08-19T04:20:59;99593.09;;;20.13;69.26
66560;BME280;53413;49.878;8.142;2022-08-19T04:23:24;99602.16;;;20.10;69.37
66560;BME280;53413;49.878;8.142;2022-08-19T04:25:50;99601.31;;;20.10;69.41
66560;BME280;53413;49.878;8.142;2022-08-19T04:28:15;99604.22;;;20.07;69.52
66560;BME280;53413;49.878;8.142;2022-08-19T04:30:44;99601.56;;;20.07;69.81
66560;BME280;53413;49.878;8.142;2022-08-19T04:33:14;99602.53;;;20.06;69.76
66560;BME280;53413;49.878;8.142;2022-08-19T04:35:43;99596.97;;;20.09;69.71
66560;BME280;53413;49.878;8.142;2022-08-19T04:38:10;99595.13;;;20.09;69.63
66560;BME280;53413;49.878;8.142;2022-08-19T04:40:45;99593.47;;;20.08;69.55
66560;BME280;53413;49.878;8.142;2022-08-19T04:43:29;99586.34;;;20.09;69.70
66560;BME280;53413;49.878;8.142;2022-08-19T04:45:55;99580.75;;;20.12;69.36
66560;BME280;53413;49.878;8.142;2022-08-19T04:48:21;99585.53;;;20.18;69.12
66560;BME280;53413;49.878;8.142;2022-08-19T04:50:52;99588.66;;;20.23;69.05
66560;BME280;53413;49.878;8.142;2022-08-19T04:53:26;99587.28;;;20.29;68.79
66560;BME280;53413;49.878;8.142;2022-08-19T04:55:55;99596.56;;;20.35;68.49
66560;BME280;53413;49.878;8.142;2022-08-19T04:58:22;99594.94;;;20.43;68.23
66560;BME280;53413;49.878;8.142;2022-08-19T05:00:48;99600.16;;;20.55;67.91
66560;BME280;53413;49.878;8.142;2022-08-19T05:03:13;99605.25;;;20.68;67.42
66560;BME280;53413;49.878;8.142;2022-08-19T05:05:43;99605.19;;;20.79;66.89
66560;BME280;53413;49.878;8.142;2022-08-19T05:08:10;99601.44;;;20.91;66.58
66560;BME280;53413;49.878;8.142;2022-08-19T05:10:37;99602.75;;;21.07;65.89
66560;BME280;53413;49.878;8.142;2022-08-19T05:13:03;99599.81;;;21.20;65.44
66560;BME280;53413;49.878;8.142;2022-08-19T05:15:28;99603.06;;;21.33;64.91
66560;BME280;53413;49.878;8.142;2022-08-19T05:17:54;99614.03;;;21.50;64.61
66560;BME280;53413;49.878;8.142;2022-08-19T05:20:39;99613.25;;;21.69;63.79
66560;BME280;53413;49.878;8.142;2022-08-19T05:23:23;99605.22;;;21.89;63.11
66560;BME280;53413;49.878;8.142;2022-08-19T05:25:49;99607.19;;;22.06;62.53
66560;BME280;53413;49.878;8.142;2022-08-19T05:28:15;99607.81;;;22.28;62.04
66560;BME280;53413;49.878;8.142;2022-08-19T05:30:41;99613.69;;;22.51;61.24
66560;BME280;53413;49.878;8.142;2022-08-19T05:33:08;99600.81;;;22.74;60.66
66560;BME280;53413;49.878;8.142;2022-08-19T05:35:36;99601.38;;;22.96;60.01
66560;BME280;53413;49.878;8.142;2022-08-19T05:38:03;99601.88;;;23.19;59.19
66560;BME280;53413;49.878;8.142;2022-08-19T05:40:28;99608.81;;;23.30;58.75
66560;BME280;53413;49.878;8.142;2022-08-19T05:42:53;99614.63;;;23.44;58.55
66560;BME280;53413;49.878;8.142;2022-08-19T05:45:19;99621.06;;;23.51;58.32
66560;BME280;53413;49.878;8.142;2022-08-19T05:47:46;99616.09;;;23.56;58.08
66560;BME280;53413;49.878;8.142;2022-08-19T05:50:12;99609.50;;;23.68;57.86
66560;BME280;53413;49.878;8.142;2022-08-19T05:52:38;99609.72;;;23.93;56.94
66560;BME280;53413;49.878;8.142;2022-08-19T05:55:04;99612.59;;;24.18;56.52
66560;BME280;53413;49.878;8.142;2022-08-19T05:57:30;99616.75;;;24.39;56.12
66560;BME280;53413;49.878;8.142;2022-08-19T05:59:57;99629.59;;;24.62;55.56
66560;BME280;53413;49.878;8.142;2022-08-19T06:02:26;99642.81;;;24.89;54.91
66560;BME280;53413;49.878;8.142;2022-08-19T06:04:52;99646.19;;;24.92;54.59
66560;BME280;53413;49.878;8.142;2022-08-19T06:07:17;99643.91;;;25.05;54.15
66560;BME280;53413;49.878;8.142;2022-08-19T06:09:42;99640.56;;;25.11;54.09
66560;BME280;53413;49.878;8.142;2022-08-19T06:12:08;99642.59;;;25.17;54.16
66560;BME280;53413;49.878;8.142;2022-08-19T06:14:34;99654.34;;;25.33;53.69
66560;BME280;53413;49.878;8.142;2022-08-19T06:17:01;99652.13;;;25.55;52.83
66560;BME280;53413;49.878;8.142;2022-08-19T06:19:27;99670.41;;;25.67;52.51
66560;BME280;53413;49.878;8.142;2022-08-19T06:21:56;99676.22;;;25.46;52.63
66560;BME280;53413;49.878;8.142;2022-08-19T06:24:23;99676.16;;;25.38;53.27
66560;BME280;53413;49.878;8.142;2022-08-19T06:26:50;99675.97;;;25.31;53.04
66560;BME280;53413;49.878;8.142;2022-08-19T06:29:18;99687.19;;;25.27;53.74
66560;BME280;53413;49.878;8.142;2022-08-19T06:31:47;99684.84;;;25.24;53.60
66560;BME280;53413;49.878;8.142;2022-08-19T06:34:15;99693.81;;;25.41;53.04
66560;BME280;53413;49.878;8.142;2022-08-19T06:36:43;99691.03;;;25.67;52.63
66560;BME280;53413;49.878;8.142;2022-08-19T06:39:18;99698.78;;;26.03;51.76
66560;BME280;53413;49.878;8.142;2022-08-19T06:41:47;99700.50;;;26.12;51.83
66560;BME280;53413;49.878;8.142;2022-08-19T06:44:13;99697.81;;;26.12;51.45
66560;BME280;53413;49.878;8.142;2022-08-19T06:46:40;99694.56;;;26.58;50.73
66560;BME280;53413;49.878;8.142;2022-08-19T06:49:07;99695.13;;;29.33;45.04
66560;BME280;53413;49.878;8.142;2022-08-19T06:51:36;99692.38;;;32.09;39.36
66560;BME280;53413;49.878;8.142;2022-08-19T06:54:02;99697.53;;;33.82;36.22
66560;BME280;53413;49.878;8.142;2022-08-19T06:56:29;99700.34;;;33.23;36.44
66560;BME280;53413;49.878;8.142;2022-08-19T06:59:00;99699.47;;;32.77;37.35
66560;BME280;53413;49.878;8.142;2022-08-19T07:01:26;99699.88;;;32.00;38.75
66560;BME280;53413;49.878;8.142;2022-08-19T07:03:51;99707.03;;;31.32;39.60
66560;BME280;53413;49.878;8.142;2022-08-19T07:06:18;99700.91;;;30.82;40.75
66560;BME280;53413;49.878;8.142;2022-08-19T07:08:45;99700.38;;;31.00;40.31
66560;BME280;53413;49.878;8.142;2022-08-19T07:11:13;99699.59;;;31.61;39.50
66560;BME280;53413;49.878;8.142;2022-08-19T07:13:39;99699.50;;;32.30;38.54
66560;BME280;53413;49.878;8.142;2022-08-19T07:16:18;99696.66;;;33.56;36.22
66560;BME280;53413;49.878;8.142;2022-08-19T07:18:51;99701.47;;;35.86;32.70
66560;BME280;53413;49.878;8.142;2022-08-19T07:21:21;99698.00;;;38.08;29.71
66560;BME280;53413;49.878;8.142;2022-08-19T07:23:48;99702.78;;;39.91;27.75
66560;BME280;53413;49.878;8.142;2022-08-19T07:26:24;99689.97;;;41.61;25.45
66560;BME280;53413;49.878;8.142;2022-08-19T07:28:50;99684.72;;;42.37;24.34
66560;BME280;53413;49.878;8.142;2022-08-19T07:31:19;99688.63;;;43.07;23.61
66560;BME280;53413;49.878;8.142;2022-08-19T07:33:46;99689.00;;;44.15;21.94
66560;BME280;53413;49.878;8.142;2022-08-19T07:36:14;99688.56;;;44.85;21.67
66560;BME280;53413;49.878;8.142;2022-08-19T07:38:44;99685.44;;;45.49;20.77
66560;BME280;53413;49.878;8.142;2022-08-19T07:41:12;99682.66;;;46.02;20.22
66560;BME280;53413;49.878;8.142;2022-08-19T07:43:38;99689.34;;;47.12;19.37
66560;BME280;53413;49.878;8.142;2022-08-19T07:46:04;99687.84;;;47.88;18.82
66560;BME280;53413;49.878;8.142;2022-08-19T07:48:30;99694.53;;;48.99;17.71
66560;BME280;53413;49.878;8.142;2022-08-19T07:50:58;99697.34;;;49.26;17.24
66560;BME280;53413;49.878;8.142;2022-08-19T07:53:28;99693.19;;;50.02;16.74
66560;BME280;53413;49.878;8.142;2022-08-19T07:55:55;99693.06;;;49.90;16.30
66560;BME280;53413;49.878;8.142;2022-08-19T07:58:23;99684.91;;;49.67;16.81
66560;BME280;53413;49.878;8.142;2022-08-19T08:00:49;99684.38;;;48.86;17.69
66560;BME280;53413;49.878;8.142;2022-08-19T08:03:17;99695.16;;;48.96;17.15
66560;BME280;53413;49.878;8.142;2022-08-19T08:05:43;99688.44;;;47.76;18.21
66560;BME280;53413;49.878;8.142;2022-08-19T08:08:28;99687.47;;;46.43;19.52
66560;BME280;53413;49.878;8.142;2022-08-19T08:11:13;99689.66;;;45.80;19.93
66560;BME280;53413;49.878;8.142;2022-08-19T08:13:38;99691.63;;;44.54;20.91
66560;BME280;53413;49.878;8.142;2022-08-19T08:16:06;99692.38;;;43.32;22.48
66560;BME280;53413;49.878;8.142;2022-08-19T08:18:32;99687.13;;;42.70;23.13
66560;BME280;53413;49.878;8.142;2022-08-19T08:20:59;99694.03;;;42.62;23.00
66560;BME280;53413;49.878;8.142;2022-08-19T08:23:25;99690.53;;;42.20;23.34
66560;BME280;53413;49.878;8.142;2022-08-19T08:25:55;99689.19;;;41.97;23.74
66560;BME280;53413;49.878;8.142;2022-08-19T08:28:22;99688.81;;;41.31;24.41
66560;BME280;53413;49.878;8.142;2022-08-19T08:30:49;99695.38;;;40.24;25.72
66560;BME280;53413;49.878;8.142;2022-08-19T08:33:20;99688.63;;;39.99;26.13
66560;BME280;53413;49.878;8.142;2022-08-19T08:35:46;99691.75;;;40.56;25.39
66560;BME280;53413;49.878;8.142;2022-08-19T08:38:12;99694.03;;;41.33;24.38
66560;BME280;53413;49.878;8.142;2022-08-19T08:43:38;99690.34;;;42.98;23.21
66560;BME280;53413;49.878;8.142;2022-08-19T08:46:14;99698.16;;;44.10;21.81
66560;BME280;53413;49.878;8.142;2022-08-19T08:51:22;99702.84;;;46.49;19.40
66560;BME280;53413;49.878;8.142;2022-08-19T08:53:51;99716.28;;;47.12;18.86
66560;BME280;53413;49.878;8.142;2022-08-19T08:56:17;99717.41;;;47.47;18.47
66560;BME280;53413;49.878;8.142;2022-08-19T08:58:54;99713.81;;;48.15;17.92
66560;BME280;53413;49.878;8.142;2022-08-19T09:01:22;99708.31;;;49.49;17.35
66560;BME280;53413;49.878;8.142;2022-08-19T09:03:47;99719.72;;;48.94;17.32
66560;BME280;53413;49.878;8.142;2022-08-19T09:06:34;99715.94;;;48.41;17.46
66560;BME280;53413;49.878;8.142;2022-08-19T09:09:10;99722.25;;;49.40;16.82
66560;BME280;53413;49.878;8.142;2022-08-19T09:17:18;99727.91;;;51.12;15.18
66560;BME280;53413;49.878;8.142;2022-08-19T09:19:54;99722.97;;;51.94;14.27
66560;BME280;53413;49.878;8.142;2022-08-19T09:22:21;99720.38;;;52.60;14.09
66560;BME280;53413;49.878;8.142;2022-08-19T09:24:52;99716.06;;;52.25;13.88
66560;BME280;53413;49.878;8.142;2022-08-19T09:27:19;99710.09;;;52.52;13.78
66560;BME280;53413;49.878;8.142;2022-08-19T09:29:46;99710.78;;;52.98;13.51
66560;BME280;53413;49.878;8.142;2022-08-19T09:32:13;99702.44;;;51.78;14.43
66560;BME280;53413;49.878;8.142;2022-08-19T09:34:39;99705.06;;;51.19;14.73
66560;BME280;53413;49.878;8.142;2022-08-19T09:37:04;99701.41;;;50.76;14.65
66560;BME280;53413;49.878;8.142;2022-08-19T09:39:30;99701.69;;;50.84;14.54
66560;BME280;53413;49.878;8.142;2022-08-19T09:41:56;99690.81;;;50.31;15.44
66560;BME280;53413;49.878;8.142;2022-08-19T09:44:21;99693.38;;;48.43;16.87
66560;BME280;53413;49.878;8.142;2022-08-19T09:46:47;99689.28;;;47.17;17.14
66560;BME280;53413;49.878;8.142;2022-08-19T09:49:12;99680.47;;;47.38;17.11
66560;BME280;53413;49.878;8.142;2022-08-19T09:51:38;99685.03;;;48.02;16.65
66560;BME280;53413;49.878;8.142;2022-08-19T09:54:03;99681.59;;;48.37;16.54
66560;BME280;53413;49.878;8.142;2022-08-19T09:56:31;99682.28;;;48.51;16.02
66560;BME280;53413;49.878;8.142;2022-08-19T09:59:00;99672.44;;;48.36;15.84
66560;BME280;53413;49.878;8.142;2022-08-19T10:01:28;99668.22;;;48.48;15.41
66560;BME280;53413;49.878;8.142;2022-08-19T10:03:56;99677.63;;;48.69;15.25
66560;BME280;53413;49.878;8.142;2022-08-19T10:06:26;99679.13;;;48.76;15.15
66560;BME280;53413;49.878;8.142;2022-08-19T10:08:55;99681.97;;;49.11;15.01
66560;BME280;53413;49.878;8.142;2022-08-19T10:11:21;99673.22;;;48.77;15.70
66560;BME280;53413;49.878;8.142;2022-08-19T10:13:47;99677.25;;;48.62;15.52
66560;BME280;53413;49.878;8.142;2022-08-19T10:16:19;99672.59;;;47.77;16.01
66560;BME280;53413;49.878;8.142;2022-08-19T10:18:46;99663.44;;;46.24;17.63
66560;BME280;53413;49.878;8.142;2022-08-19T10:23:41;99647.88;;;42.12;20.57
66560;BME280;53413;49.878;8.142;2022-08-19T10:26:12;99637.78;;;40.82;21.92
66560;BME280;53413;49.878;8.142;2022-08-19T10:28:37;99651.56;;;39.69;22.91
66560;BME280;53413;49.878;8.142;2022-08-19T10:31:05;99647.47;;;38.89;23.81
66560;BME280;53413;49.878;8.142;2022-08-19T10:33:31;99643.16;;;37.98;25.30
66560;BME280;53413;49.878;8.142;2022-08-19T10:36:05;99646.66;;;37.35;25.09
66560;BME280;53413;49.878;8.142;2022-08-19T10:38:31;99636.75;;;36.76;26.22
66560;BME280;53413;49.878;8.142;2022-08-19T10:40:57;99643.84;;;36.48;26.07
66560;BME280;53413;49.878;8.142;2022-08-19T10:43:23;99633.63;;;36.08;26.36
66560;BME280;53413;49.878;8.142;2022-08-19T10:45:54;99649.56;;;35.81;26.83
66560;BME280;53413;49.878;8.142;2022-08-19T10:48:24;99642.50;;;35.49;26.79
66560;BME280;53413;49.878;8.142;2022-08-19T10:50:50;99641.84;;;35.35;26.33
66560;BME280;53413;49.878;8.142;2022-08-19T10:53:34;99641.41;;;35.20;27.19
66560;BME280;53413;49.878;8.142;2022-08-19T10:55:59;99640.66;;;35.12;27.12
66560;BME280;53413;49.878;8.142;2022-08-19T10:58:43;99642.28;;;35.02;27.11
66560;BME280;53413;49.878;8.142;2022-08-19T11:01:09;99631.41;;;35.02;27.25
66560;BME280;53413;49.878;8.142;2022-08-19T11:03:35;99640.63;;;35.01;27.23
66560;BME280;53413;49.878;8.142;2022-08-19T11:06:05;99640.00;;;34.98;26.91
66560;BME280;53413;49.878;8.142;2022-08-19T11:08:31;99641.97;;;34.73;27.14
66560;BME280;53413;49.878;8.142;2022-08-19T11:10:59;99639.78;;;34.63;27.62
66560;BME280;53413;49.878;8.142;2022-08-19T11:13:31;99636.84;;;34.64;27.71
66560;BME280;53413;49.878;8.142;2022-08-19T11:16:02;99632.97;;;34.72;27.50
66560;BME280;53413;49.878;8.142;2022-08-19T11:18:28;99630.88;;;34.74;27.54
66560;BME280;53413;49.878;8.142;2022-08-19T11:20:54;99624.38;;;34.57;27.46
66560;BME280;53413;49.878;8.142;2022-08-19T11:23:19;99629.53;;;34.40;27.90
66560;BME280;53413;49.878;8.142;2022-08-19T11:25:45;99614.78;;;34.29;28.14
66560;BME280;53413;49.878;8.142;2022-08-19T11:28:11;99615.41;;;34.31;28.57
66560;BME280;53413;49.878;8.142;2022-08-19T11:30:38;99613.66;;;34.18;29.07
66560;BME280;53413;49.878;8.142;2022-08-19T11:33:03;99601.72;;;34.19;28.73
66560;BME280;53413;49.878;8.142;2022-08-19T11:35:28;99612.91;;;34.29;28.75
66560;BME280;53413;49.878;8.142;2022-08-19T11:37:54;99603.63;;;34.37;28.27
66560;BME280;53413;49.878;8.142;2022-08-19T11:40:21;99604.03;;;34.41;28.07
66560;BME280;53413;49.878;8.142;2022-08-19T11:42:46;99594.84;;;34.35;28.09
66560;BME280;53413;49.878;8.142;2022-08-19T11:45:24;99596.34;;;34.12;28.61
66560;BME280;53413;49.878;8.142;2022-08-19T11:47:50;99587.94;;;33.95;28.54
66560;BME280;53413;49.878;8.142;2022-08-19T11:50:16;99584.84;;;33.91;28.95
66560;BME280;53413;49.878;8.142;2022-08-19T11:52:42;99579.41;;;33.91;29.30
66560;BME280;53413;49.878;8.142;2022-08-19T11:55:09;99575.16;;;33.70;28.66
66560;BME280;53413;49.878;8.142;2022-08-19T11:57:34;99574.19;;;33.90;28.92
66560;BME280;53413;49.878;8.142;2022-08-19T12:00:00;99573.72;;;33.93;29.14
66560;BME280;53413;49.878;8.142;2022-08-19T12:02:26;99582.88;;;33.99;28.62
66560;BME280;53413;49.878;8.142;2022-08-19T12:04:52;99577.38;;;34.05;28.56
66560;BME280;53413;49.878;8.142;2022-08-19T12:07:17;99575.09;;;34.02;28.98
66560;BME280;53413;49.878;8.142;2022-08-19T12:09:42;99576.03;;;34.15;28.56
66560;BME280;53413;49.878;8.142;2022-08-19T12:12:09;99567.44;;;34.18;28.62
66560;BME280;53413;49.878;8.142;2022-08-19T12:14:34;99569.09;;;34.19;28.40
66560;BME280;53413;49.878;8.142;2022-08-19T12:17:00;99565.84;;;34.10;28.72
66560;BME280;53413;49.878;8.142;2022-08-19T12:19:27;99565.91;;;34.03;28.83
66560;BME280;53413;49.878;8.142;2022-08-19T12:21:59;99569.16;;;33.87;28.84
66560;BME280;53413;49.878;8.142;2022-08-19T12:24:26;99559.78;;;33.83;28.70
66560;BME280;53413;49.878;8.142;2022-08-19T12:26:52;99566.72;;;33.53;27.05
66560;BME280;53413;49.878;8.142;2022-08-19T12:29:21;99561.97;;;33.49;26.74
66560;BME280;53413;49.878;8.142;2022-08-19T12:31:46;99567.94;;;33.57;26.95
66560;BME280;53413;49.878;8.142;2022-08-19T12:34:12;99571.00;;;33.68;28.39
66560;BME280;53413;49.878;8.142;2022-08-19T12:36:37;99572.94;;;33.60;28.11
66560;BME280;53413;49.878;8.142;2022-08-19T12:39:03;99568.34;;;33.61;27.94
66560;BME280;53413;49.878;8.142;2022-08-19T12:41:29;99563.72;;;33.61;26.49
66560;BME280;53413;49.878;8.142;2022-08-19T12:43:54;99559.91;;;33.69;26.70
66560;BME280;53413;49.878;8.142;2022-08-19T12:46:20;99566.06;;;33.83;26.69
66560;BME280;53413;49.878;8.142;2022-08-19T12:48:46;99565.22;;;33.83;26.30
66560;BME280;53413;49.878;8.142;2022-08-19T12:51:14;99562.91;;;33.86;26.17
66560;BME280;53413;49.878;8.142;2022-08-19T12:53:40;99553.91;;;33.86;25.93
66560;BME280;53413;49.878;8.142;2022-08-19T12:56:10;99553.50;;;33.82;25.85
66560;BME280;53413;49.878;8.142;2022-08-19T12:58:36;99551.25;;;33.79;25.65
66560;BME280;53413;49.878;8.142;2022-08-19T13:01:10;99551.53;;;33.71;26.07
66560;BME280;53413;49.878;8.142;2022-08-19T13:03:36;99553.56;;;33.75;26.35
66560;BME280;53413;49.878;8.142;2022-08-19T13:06:02;99547.22;;;33.88;25.95
66560;BME280;53413;49.878;8.142;2022-08-19T13:08:27;99550.50;;;33.97;26.13
66560;BME280;53413;49.878;8.142;2022-08-19T13:10:53;99553.66;;;33.94;25.21
66560;BME280;53413;49.878;8.142;2022-08-19T13:13:18;99559.72;;;33.96;26.41
66560;BME280;53413;49.878;8.142;2022-08-19T13:15:44;99563.25;;;33.97;26.06